Time;durP1;ratioP1;P1;durP2;ratioP2;P2;SDS_P1;SDS_P2;PMS_P1;PMS_P2;Temp;Humidity;BMP_temperature;BMP_pressure;BME280_temperature;BME280_humidity;BME280_pressure;Samples;Min_cycle;Max_cycle;Signal;HPM_P1;HPM_P2
2023/08/01 00:00:45;;;;;;;4.47;2.28;;;18.40;80.30;;;;;;5049711;28;20048;-77
2023/08/01 00:03:11;;;;;;;3.58;1.80;;;18.40;80.30;;;;;;5049849;28;20049;-78
2023/08/01 00:05:38;;;;;;;4.68;2.22;;;18.30;80.30;;;;;;5033542;28;20044;-77
2023/08/01 00:08:04;;;;;;;8.35;2.60;;;18.30;80.30;;;;;;5033479;28;20047;-77
2023/08/01 00:10:29;;;;;;;5.75;2.65;;;18.30;80.30;;;;;;5050222;28;20131;-80
2023/08/01 00:12:55;;;;;;;3.90;2.13;;;18.30;80.40;;;;;;5050414;28;20041;-80
2023/08/01 00:15:21;;;;;;;6.75;2.47;;;18.30;80.40;;;;;;5050475;28;20079;-80
2023/08/01 00:17:46;;;;;;;4.25;2.60;;;18.30;80.40;;;;;;5021536;28;20045;-80
2023/08/01 00:20:12;;;;;;;6.57;2.60;;;18.30;80.50;;;;;;5054865;28;20132;-80
2023/08/01 00:22:38;;;;;;;6.57;2.85;;;18.20;80.50;;;;;;5037926;28;20492;-80
2023/08/01 00:25:04;;;;;;;5.28;2.30;;;18.20;80.60;;;;;;5054253;28;20045;-80
2023/08/01 00:27:32;;;;;;;5.82;2.47;;;18.20;80.60;;;;;;5037759;28;20044;-79
2023/08/01 00:29:57;;;;;;;6.88;2.63;;;18.20;80.60;;;;;;5054165;28;20045;-78
2023/08/01 00:32:23;;;;;;;4.18;2.00;;;18.20;80.70;;;;;;5054282;28;20091;-80
2023/08/01 00:34:51;;;;;;;3.83;1.98;;;18.20;80.60;;;;;;5053815;28;20131;-80
2023/08/01 00:37:16;;;;;;;6.05;2.05;;;18.20;80.70;;;;;;5037791;28;20041;-80
2023/08/01 00:39:42;;;;;;;6.70;2.20;;;18.20;80.70;;;;;;5037590;28;20041;-79
2023/08/01 00:42:08;;;;;;;5.25;2.20;;;18.20;80.70;;;;;;5037398;28;20041;-80
2023/08/01 00:44:33;;;;;;;4.38;2.45;;;18.20;80.70;;;;;;5037132;28;20037;-80
2023/08/01 00:46:59;;;;;;;4.30;2.10;;;18.20;80.80;;;;;;5053548;28;20048;-80
2023/08/01 00:49:25;;;;;;;6.05;2.25;;;18.20;80.90;;;;;;5036811;28;20041;-80
2023/08/01 00:51:51;;;;;;;6.25;2.30;;;18.20;80.90;;;;;;5053670;28;20029;-80
2023/08/01 00:54:16;;;;;;;5.80;2.88;;;18.10;80.90;;;;;;5036793;28;20080;-79
2023/08/01 00:56:44;;;;;;;7.70;2.28;;;18.10;81.30;;;;;;5036985;28;20045;-79
2023/08/01 00:59:11;;;;;;;10.75;2.78;;;18.20;81.00;;;;;;5053333;28;20084;-80
2023/08/01 01:01:37;;;;;;;6.47;2.88;;;18.10;81.00;;;;;;5053479;28;20051;-80
2023/08/01 01:04:03;;;;;;;6.20;2.55;;;18.10;81.10;;;;;;5036765;28;20041;-81
2023/08/01 01:06:44;;;;;;;8.43;3.53;;;18.20;81.20;;;;;;5036598;28;20098;-81
2023/08/01 01:09:17;;;;;;;9.43;3.42;;;18.10;81.00;;;;;;5036464;28;20094;-81
2023/08/01 01:11:44;;;;;;;6.60;2.90;;;18.10;80.80;;;;;;5053375;28;20040;-82
2023/08/01 01:14:10;;;;;;;7.15;2.67;;;18.10;80.70;;;;;;5036339;28;20033;-81
2023/08/01 01:16:36;;;;;;;7.78;3.88;;;18.10;80.50;;;;;;5053505;28;20037;-81
2023/08/01 01:19:07;;;;;;;8.35;3.33;;;18.10;80.40;;;;;;5053125;28;20052;-81
2023/08/01 01:21:35;;;;;;;6.60;3.20;;;18.10;80.20;;;;;;5054141;28;20084;-81
2023/08/01 01:24:04;;;;;;;5.78;3.45;;;18.00;80.10;;;;;;5053418;28;20132;-76
2023/08/01 01:26:30;;;;;;;6.70;2.88;;;18.00;80.00;;;;;;5053177;28;20439;-77
2023/08/01 01:28:56;;;;;;;8.35;3.85;;;18.00;80.00;;;;;;5018922;28;20048;-76
2023/08/01 01:31:22;;;;;;;8.05;3.70;;;18.00;80.00;;;;;;5053965;28;20029;-77
2023/08/01 01:33:49;;;;;;;5.80;3.05;;;18.00;80.00;;;;;;5053385;28;20129;-77
2023/08/01 01:36:14;;;;;;;9.25;3.50;;;18.00;80.00;;;;;;5053650;28;20045;-77
2023/08/01 01:38:40;;;;;;;7.53;3.72;;;18.00;80.00;;;;;;5052954;28;20167;-77
2023/08/01 01:41:06;;;;;;;6.10;3.30;;;18.00;79.90;;;;;;5037333;28;20078;-77
2023/08/01 01:43:31;;;;;;;6.88;3.85;;;17.90;79.90;;;;;;5020921;28;20044;-77
2023/08/01 01:45:57;;;;;;;5.28;3.70;;;18.00;80.00;;;;;;5054072;28;20037;-77
2023/08/01 01:48:23;;;;;;;6.82;3.28;;;17.90;80.00;;;;;;5036630;28;20076;-77
2023/08/01 01:50:48;;;;;;;9.70;3.75;;;17.90;80.10;;;;;;5036391;28;20037;-77
2023/08/01 01:53:14;;;;;;;7.47;4.10;;;17.90;80.20;;;;;;5036790;28;20080;-77
2023/08/01 01:55:40;;;;;;;8.48;4.45;;;17.90;80.20;;;;;;5036073;28;20048;-77
2023/08/01 01:58:06;;;;;;;7.20;3.33;;;17.90;80.30;;;;;;5019438;28;20087;-77
2023/08/01 02:00:31;;;;;;;8.05;4.43;;;17.90;80.40;;;;;;5035868;28;20048;-77
2023/08/01 02:02:57;;;;;;;6.28;3.05;;;17.90;80.40;;;;;;5035751;28;20045;-77
2023/08/01 02:05:23;;;;;;;6.57;3.90;;;17.90;80.40;;;;;;5035869;28;20083;-77
2023/08/01 02:07:48;;;;;;;7.75;3.28;;;17.90;80.50;;;;;;5035765;28;20052;-77
2023/08/01 02:10:14;;;;;;;7.45;3.88;;;17.90;80.50;;;;;;5035679;28;20040;-77
2023/08/01 02:12:40;;;;;;;11.13;4.47;;;17.90;80.60;;;;;;5035589;28;20032;-77
2023/08/01 02:15:06;;;;;;;4.45;2.95;;;17.90;80.60;;;;;;5036125;28;20036;-77
2023/08/01 02:17:32;;;;;;;8.27;3.75;;;17.90;80.60;;;;;;5019515;28;20124;-77
2023/08/01 02:19:57;;;;;;;7.60;3.60;;;17.90;80.70;;;;;;5052928;28;20517;-77
2023/08/01 02:22:26;;;;;;;8.65;3.88;;;17.80;80.70;;;;;;5035671;28;20044;-77
2023/08/01 02:24:51;;;;;;;8.48;3.97;;;17.80;81.00;;;;;;5035707;28;20048;-77
2023/08/01 02:27:17;;;;;;;6.85;3.47;;;17.80;80.90;;;;;;5051851;28;20041;-77
2023/08/01 02:29:44;;;;;;;6.28;3.03;;;17.80;81.00;;;;;;5035058;28;20210;-77
2023/08/01 02:32:09;;;;;;;7.72;3.38;;;17.80;81.00;;;;;;5035256;28;20045;-77
2023/08/01 02:34:35;;;;;;;9.27;3.85;;;17.80;81.10;;;;;;5051345;28;20060;-77
2023/08/01 02:37:01;;;;;;;10.20;3.45;;;17.80;81.10;;;;;;5035027;28;20045;-77
2023/08/01 02:39:26;;;;;;;6.20;3.25;;;17.80;81.20;;;;;;5034571;28;20071;-78
2023/08/01 02:41:52;;;;;;;6.53;3.55;;;17.80;81.20;;;;;;5018557;28;20044;-77
2023/08/01 02:44:18;;;;;;;7.38;3.85;;;17.80;81.20;;;;;;5018366;28;20136;-77
2023/08/01 02:46:43;;;;;;;7.50;3.83;;;17.80;81.30;;;;;;5034904;28;20131;-78
2023/08/01 02:49:09;;;;;;;9.02;3.50;;;17.80;81.40;;;;;;5051404;28;20420;-80
2023/08/01 02:51:35;;;;;;;6.30;3.00;;;17.80;81.40;;;;;;5034999;28;20073;-80
2023/08/01 02:54:00;;;;;;;7.85;3.53;;;17.80;81.40;;;;;;5051371;28;20033;-80
2023/08/01 02:56:27;;;;;;;6.82;2.92;;;17.80;81.40;;;;;;5018394;28;20039;-78
2023/08/01 02:58:55;;;;;;;7.57;3.83;;;17.80;81.40;;;;;;5018055;28;20079;-77
2023/08/01 03:01:21;;;;;;;8.80;2.40;;;17.70;81.30;;;;;;5051005;28;20037;-76
2023/08/01 03:03:46;;;;;;;5.28;1.67;;;17.70;80.80;;;;;;5050681;28;20041;-77
2023/08/01 03:06:14;;;;;;;4.30;1.95;;;17.70;80.30;;;;;;5018009;28;20044;-77
2023/08/01 03:08:40;;;;;;;3.70;1.55;;;17.60;79.80;;;;;;5051141;28;20489;-77
2023/08/01 03:11:05;;;;;;;4.95;1.73;;;17.70;79.40;;;;;;5035021;28;20443;-81
2023/08/01 03:13:31;;;;;;;2.85;1.30;;;17.50;79.10;;;;;;5051284;28;20037;-81
2023/08/01 03:15:57;;;;;;;3.22;1.05;;;17.50;79.00;;;;;;5035199;28;20036;-81
2023/08/01 03:18:22;;;;;;;2.90;1.27;;;17.40;78.90;;;;;;5018269;28;20396;-81
2023/08/01 03:20:48;;;;;;;2.90;0.90;;;17.40;78.90;;;;;;5035188;28;20105;-81
2023/08/01 03:23:14;;;;;;;2.63;1.15;;;17.40;79.00;;;;;;5051226;28;20529;-81
2023/08/01 03:25:40;;;;;;;3.28;1.30;;;17.40;79.00;;;;;;5051223;28;20041;-80
2023/08/01 03:28:06;;;;;;;3.35;1.23;;;17.30;79.00;;;;;;5018332;28;20047;-81
2023/08/01 03:30:32;;;;;;;4.05;1.27;;;17.30;79.10;;;;;;5051117;28;20045;-81
2023/08/01 03:32:59;;;;;;;3.30;1.52;;;17.30;79.20;;;;;;5051054;28;20056;-81
2023/08/01 03:35:25;;;;;;;4.55;1.70;;;17.30;79.40;;;;;;5034195;28;20419;-77
2023/08/01 03:37:50;;;;;;;3.63;1.30;;;17.30;79.40;;;;;;5050831;28;20037;-78
2023/08/01 03:40:16;;;;;;;2.65;1.25;;;17.30;79.40;;;;;;5034406;28;20044;-78
2023/08/01 03:42:43;;;;;;;3.35;1.00;;;17.30;79.40;;;;;;5034439;28;20049;-77
2023/08/01 03:45:10;;;;;;;2.45;1.20;;;17.30;79.40;;;;;;5034292;28;20045;-77
2023/08/01 03:47:35;;;;;;;2.72;1.13;;;17.30;79.40;;;;;;5034263;28;20377;-77
2023/08/01 03:50:02;;;;;;;2.92;1.15;;;17.30;79.40;;;;;;5050468;28;20053;-76
2023/08/01 03:52:28;;;;;;;1.55;0.70;;;17.30;79.30;;;;;;5037576;28;20469;-77
2023/08/01 03:54:55;;;;;;;3.53;1.38;;;17.30;79.20;;;;;;5054523;28;20124;-77
2023/08/01 03:57:21;;;;;;;1.80;1.00;;;17.30;79.70;;;;;;5037947;28;20044;-78
2023/08/01 03:59:47;;;;;;;3.38;1.20;;;17.30;79.30;;;;;;5034623;28;20068;-77
2023/08/01 04:02:13;;;;;;;2.15;0.93;;;17.30;79.40;;;;;;5018285;28;20087;-77
2023/08/01 04:04:38;;;;;;;1.55;1.00;;;17.30;79.40;;;;;;5018060;28;20049;-77
2023/08/01 04:07:04;;;;;;;3.33;1.35;;;17.30;79.30;;;;;;5001588;28;20048;-77
2023/08/01 04:09:30;;;;;;;2.58;1.10;;;17.30;79.30;;;;;;5017581;28;20114;-76
2023/08/01 04:11:56;;;;;;;2.33;1.00;;;17.30;79.30;;;;;;5034222;28;20089;-76
2023/08/01 04:14:21;;;;;;;2.00;0.85;;;17.30;79.30;;;;;;5017557;28;20083;-77
2023/08/01 04:16:48;;;;;;;2.08;1.08;;;17.30;79.30;;;;;;5018228;28;20034;-77
2023/08/01 04:19:13;;;;;;;5.15;1.60;;;17.30;79.40;;;;;;5034320;28;20049;-77
2023/08/01 04:21:39;;;;;;;3.58;1.30;;;17.30;79.30;;;;;;5018157;28;20042;-77
2023/08/01 04:24:05;;;;;;;2.50;1.23;;;17.20;79.30;;;;;;5017690;28;20144;-77
2023/08/01 04:26:30;;;;;;;2.25;1.20;;;17.20;79.30;;;;;;5017764;28;20080;-77
2023/08/01 04:28:56;;;;;;;2.05;1.10;;;17.20;79.40;;;;;;5017240;28;20473;-78
2023/08/01 04:31:22;;;;;;;2.08;1.30;;;17.20;79.50;;;;;;5034138;28;20037;-78
2023/08/01 04:33:47;;;;;;;3.13;1.05;;;17.20;79.50;;;;;;5016947;28;20128;-77
2023/08/01 04:36:13;;;;;;;4.82;1.15;;;17.20;79.50;;;;;;5033704;28;20056;-77
2023/08/01 04:38:39;;;;;;;2.42;1.30;;;17.20;79.90;;;;;;5033665;28;20041;-77
2023/08/01 04:41:05;;;;;;;3.20;1.13;;;17.20;79.50;;;;;;5017093;28;20045;-77
2023/08/01 04:43:30;;;;;;;3.50;1.35;;;17.20;79.70;;;;;;5033524;28;20043;-77
2023/08/01 04:45:56;;;;;;;2.83;1.40;;;17.10;79.70;;;;;;5017146;28;20140;-77
2023/08/01 04:48:22;;;;;;;3.28;1.15;;;17.20;79.90;;;;;;5033326;28;20476;-77
2023/08/01 04:50:47;;;;;;;3.08;1.48;;;17.20;80.00;;;;;;5032914;28;20038;-77
2023/08/01 04:53:13;;;;;;;4.45;1.35;;;17.10;80.10;;;;;;5028045;28;20540;-77
2023/08/01 04:55:40;;;;;;;3.60;1.42;;;17.20;80.30;;;;;;5036680;28;20147;-78
2023/08/01 04:58:06;;;;;;;3.55;1.30;;;17.20;80.40;;;;;;5053162;28;20037;-78
2023/08/01 05:00:31;;;;;;;3.13;1.55;;;17.20;80.60;;;;;;5036491;28;20246;-78
2023/08/01 05:02:57;;;;;;;2.38;1.30;;;17.20;80.70;;;;;;5052632;28;20452;-78
2023/08/01 05:05:23;;;;;;;3.30;1.67;;;17.20;80.70;;;;;;5052869;28;20040;-77
2023/08/01 05:07:48;;;;;;;3.85;1.40;;;17.20;80.80;;;;;;5053108;28;20044;-77
2023/08/01 05:10:14;;;;;;;2.97;1.20;;;17.20;80.80;;;;;;5052805;28;20045;-77
2023/08/01 05:12:40;;;;;;;2.65;1.20;;;17.20;80.80;;;;;;5053158;28;20041;-78
2023/08/01 05:15:06;;;;;;;5.00;1.50;;;17.20;80.90;;;;;;5053104;28;20044;-78
2023/08/01 05:17:32;;;;;;;3.95;1.33;;;17.20;80.90;;;;;;5052686;28;20479;-78
2023/08/01 05:19:57;;;;;;;3.05;1.60;;;17.20;80.90;;;;;;5053152;28;20045;-77
2023/08/01 05:22:23;;;;;;;2.72;1.63;;;17.20;81.00;;;;;;5036290;28;20041;-78
2023/08/01 05:24:49;;;;;;;2.35;1.20;;;17.20;81.00;;;;;;5036173;28;20131;-78
2023/08/01 05:27:14;;;;;;;4.22;1.63;;;17.20;81.00;;;;;;5003593;28;20033;-78
2023/08/01 05:29:40;;;;;;;2.25;1.27;;;17.20;81.00;;;;;;5052562;28;20079;-78
2023/08/01 05:32:06;;;;;;;4.32;1.73;;;17.20;81.10;;;;;;5052751;28;20041;-78
2023/08/01 05:34:33;;;;;;;5.18;1.83;;;17.20;81.10;;;;;;5035494;28;20519;-78
2023/08/01 05:36:58;;;;;;;4.30;1.92;;;17.20;81.10;;;;;;5052331;28;20132;-78
2023/08/01 05:39:24;;;;;;;3.88;1.50;;;17.20;81.10;;;;;;5035954;28;20128;-78
2023/08/01 05:41:50;;;;;;;4.70;1.70;;;17.20;81.20;;;;;;5052574;28;20037;-78
2023/08/01 05:44:16;;;;;;;5.35;1.67;;;17.20;81.30;;;;;;5035724;28;20488;-78
2023/08/01 05:46:42;;;;;;;3.88;1.30;;;17.30;81.40;;;;;;5035950;28;20041;-78
2023/08/01 05:49:07;;;;;;;3.95;1.67;;;17.20;81.40;;;;;;5052014;28;20143;-79
2023/08/01 05:51:33;;;;;;;3.05;1.55;;;17.30;81.50;;;;;;5052346;28;20044;-79
2023/08/01 05:53:59;;;;;;;2.33;1.30;;;17.20;81.40;;;;;;5052663;28;20076;-79
2023/08/01 05:56:24;;;;;;;3.72;1.25;;;17.30;81.60;;;;;;5052404;28;20127;-79
2023/08/01 05:58:50;;;;;;;3.13;1.50;;;17.30;81.80;;;;;;5053934;28;20495;-78
2023/08/01 06:01:16;;;;;;;2.22;1.10;;;17.30;81.90;;;;;;5056310;28;20036;-78
2023/08/01 06:03:42;;;;;;;5.07;1.05;;;17.30;82.00;;;;;;5055893;28;20045;-78
2023/08/01 06:06:08;;;;;;;2.90;1.13;;;17.30;82.00;;;;;;5057564;28;20033;-77
2023/08/01 06:08:34;;;;;;;3.22;1.08;;;17.30;82.00;;;;;;5055236;28;20045;-78
2023/08/01 06:11:00;;;;;;;4.10;1.67;;;17.40;81.90;;;;;;5053555;28;20041;-79
2023/08/01 06:13:26;;;;;;;2.50;1.10;;;17.40;81.80;;;;;;5035905;28;20045;-78
2023/08/01 06:15:51;;;;;;;2.35;0.93;;;17.40;81.70;;;;;;5052958;28;20052;-78
2023/08/01 06:18:17;;;;;;;2.95;0.98;;;17.50;81.60;;;;;;5035705;28;20072;-78
2023/08/01 06:20:43;;;;;;;2.65;1.35;;;17.50;81.50;;;;;;5035893;28;20040;-78
2023/08/01 06:23:09;;;;;;;2.13;1.20;;;17.50;81.30;;;;;;5052118;28;20049;-78
2023/08/01 06:25:34;;;;;;;2.25;1.13;;;17.50;81.20;;;;;;5035582;28;20045;-78
2023/08/01 06:28:00;;;;;;;2.72;1.20;;;17.50;81.30;;;;;;5051953;28;20473;-76
2023/08/01 06:30:26;;;;;;;4.75;1.50;;;17.60;81.30;;;;;;5051303;28;20094;-77
2023/08/01 06:32:51;;;;;;;4.13;1.00;;;17.60;81.10;;;;;;5051831;28;20049;-77
2023/08/01 06:35:17;;;;;;;3.90;1.25;;;17.60;80.90;;;;;;5051426;28;20088;-76
2023/08/01 06:37:43;;;;;;;3.20;1.73;;;17.70;80.90;;;;;;5034897;28;20184;-76
2023/08/01 06:40:09;;;;;;;5.57;1.17;;;17.80;80.90;;;;;;5051625;28;20041;-76
2023/08/01 06:42:35;;;;;;;3.08;1.10;;;17.80;81.10;;;;;;5051776;28;20040;-76
2023/08/01 06:45:01;;;;;;;3.30;1.42;;;17.90;81.60;;;;;;5051620;28;20415;-77
2023/08/01 06:47:27;;;;;;;4.88;1.83;;;17.90;81.60;;;;;;5052055;28;20048;-77
2023/08/01 06:49:52;;;;;;;3.75;1.17;;;18.00;81.40;;;;;;5018822;28;20091;-78
2023/08/01 06:52:18;;;;;;;3.13;1.42;;;18.10;81.50;;;;;;5035483;28;20495;-77
2023/08/01 06:54:44;;;;;;;5.10;1.70;;;18.20;81.70;;;;;;5051767;28;20048;-77
2023/08/01 06:57:09;;;;;;;3.83;1.50;;;18.30;81.80;;;;;;5002488;28;20123;-77
2023/08/01 06:59:35;;;;;;;6.30;1.77;;;18.40;82.10;;;;;;5051997;28;20048;-77
2023/08/01 07:02:01;;;;;;;4.60;1.45;;;18.60;82.00;;;;;;5035370;28;20076;-77
2023/08/01 07:04:27;;;;;;;4.00;1.35;;;18.60;81.30;;;;;;5051760;28;20127;-78
2023/08/01 07:06:53;;;;;;;3.00;1.25;;;18.80;80.90;;;;;;5052078;28;20128;-79
2023/08/01 07:09:19;;;;;;;3.40;1.40;;;18.90;80.90;;;;;;5051643;28;20049;-78
2023/08/01 07:11:44;;;;;;;5.13;1.52;;;19.00;80.30;;;;;;5051641;28;20100;-77
2023/08/01 07:14:10;;;;;;;4.47;1.40;;;19.10;79.70;;;;;;5035020;28;20083;-78
2023/08/01 07:16:36;;;;;;;3.92;1.20;;;19.10;79.20;;;;;;5034890;28;20124;-76
2023/08/01 07:19:01;;;;;;;5.10;1.50;;;19.10;78.60;;;;;;5034849;28;20123;-77
2023/08/01 07:21:28;;;;;;;3.78;1.30;;;19.20;78.20;;;;;;5017917;28;20378;-77
2023/08/01 07:23:54;;;;;;;4.43;1.20;;;19.30;78.00;;;;;;5034666;28;20037;-77
2023/08/01 07:26:20;;;;;;;4.40;1.27;;;19.30;77.80;;;;;;5050780;28;20052;-76
2023/08/01 07:28:46;;;;;;;4.05;1.30;;;19.30;77.40;;;;;;5050967;28;20048;-79
2023/08/01 07:31:11;;;;;;;3.45;1.08;;;19.30;76.90;;;;;;5018071;28;20045;-80
2023/08/01 07:33:37;;;;;;;5.53;1.33;;;19.30;76.50;;;;;;5035018;28;20053;-80
2023/08/01 07:36:04;;;;;;;3.78;1.30;;;19.30;76.30;;;;;;5051406;28;20049;-80
2023/08/01 07:38:32;;;;;;;2.67;1.10;;;19.20;76.10;;;;;;5035047;28;20100;-80
2023/08/01 07:41:04;;;;;;;4.53;1.35;;;19.20;76.20;;;;;;5051940;28;20149;-80
2023/08/01 07:43:30;;;;;;;4.38;1.50;;;19.20;76.10;;;;;;5039407;28;20045;-79
2023/08/01 07:45:59;;;;;;;3.97;1.30;;;19.20;76.10;;;;;;5055468;28;20040;-78
2023/08/01 07:48:25;;;;;;;3.30;1.05;;;19.20;76.00;;;;;;5036670;28;20041;-79
2023/08/01 07:50:51;;;;;;;4.40;1.40;;;19.10;76.10;;;;;;5018338;28;20103;-79
2023/08/01 07:53:17;;;;;;;4.78;1.83;;;19.00;76.20;;;;;;5034890;28;20132;-79
2023/08/01 07:55:42;;;;;;;5.55;1.40;;;19.00;76.40;;;;;;5051039;28;20079;-79
2023/08/01 07:58:08;;;;;;;4.95;2.15;;;19.00;76.40;;;;;;5034352;28;20563;-79
2023/08/01 08:00:37;;;;;;;5.53;1.90;;;19.00;76.40;;;;;;5034065;28;20087;-80
2023/08/01 08:03:05;;;;;;;6.68;1.90;;;18.90;76.50;;;;;;5018107;28;20048;-79
2023/08/01 08:05:31;;;;;;;5.78;1.98;;;18.90;76.50;;;;;;5034562;28;20484;-80
2023/08/01 08:07:56;;;;;;;6.63;2.22;;;18.80;76.50;;;;;;5050778;28;20059;-80
2023/08/01 08:10:22;;;;;;;8.63;2.85;;;18.70;76.50;;;;;;5033912;28;20098;-79
2023/08/01 08:12:48;;;;;;;6.82;2.00;;;18.70;76.70;;;;;;5034645;28;20036;-80
2023/08/01 08:15:15;;;;;;;6.85;2.15;;;18.60;76.70;;;;;;5034272;28;20515;-80
2023/08/01 08:17:41;;;;;;;5.10;2.05;;;18.60;76.90;;;;;;5033941;28;20048;-76
2023/08/01 08:20:07;;;;;;;4.72;1.83;;;18.50;76.90;;;;;;5050470;28;20041;-77
2023/08/01 08:22:33;;;;;;;6.68;2.22;;;18.40;77.10;;;;;;5033528;28;20048;-76
2023/08/01 08:24:59;;;;;;;4.82;2.00;;;18.40;77.30;;;;;;5050024;28;20044;-77
2023/08/01 08:27:24;;;;;;;4.93;1.77;;;18.30;77.50;;;;;;5033784;28;20080;-77
2023/08/01 08:29:50;;;;;;;8.60;3.00;;;18.30;77.70;;;;;;5049923;28;20044;-77
2023/08/01 08:32:16;;;;;;;5.78;2.28;;;18.30;77.90;;;;;;5033934;28;20048;-80
2023/08/01 08:34:42;;;;;;;7.13;2.30;;;18.20;78.00;;;;;;5049964;28;20140;-77
2023/08/01 08:37:08;;;;;;;6.18;1.95;;;18.20;78.10;;;;;;5018869;28;20124;-77
2023/08/01 08:39:33;;;;;;;5.20;1.95;;;18.20;78.20;;;;;;5054432;28;20418;-77
2023/08/01 08:41:59;;;;;;;4.68;1.80;;;18.20;78.40;;;;;;5053987;28;20440;-76
2023/08/01 08:44:28;;;;;;;6.03;2.25;;;18.10;78.50;;;;;;5037550;28;20453;-77
2023/08/01 08:46:55;;;;;;;5.47;2.35;;;18.10;78.70;;;;;;5037404;28;20099;-76
2023/08/01 08:49:21;;;;;;;4.90;2.10;;;18.10;78.90;;;;;;5053907;28;20053;-77
2023/08/01 08:51:48;;;;;;;6.45;2.40;;;18.10;79.00;;;;;;5037320;28;20472;-78
2023/08/01 08:54:16;;;;;;;8.93;2.63;;;18.00;79.10;;;;;;5053665;28;20040;-77
2023/08/01 08:56:42;;;;;;;6.47;2.67;;;18.00;79.30;;;;;;5053823;28;20048;-78
2023/08/01 08:59:12;;;;;;;7.20;2.20;;;18.00;79.40;;;;;;5036165;28;20072;-77
2023/08/01 09:01:39;;;;;;;6.22;2.80;;;18.00;79.40;;;;;;5052620;28;20036;-77
2023/08/01 09:04:05;;;;;;;5.47;2.33;;;18.00;79.40;;;;;;5053684;28;20086;-76
2023/08/01 09:06:37;;;;;;;5.07;2.30;;;17.90;79.30;;;;;;5053394;28;20120;-76
2023/08/01 09:09:15;;;;;;;5.70;2.33;;;17.90;79.40;;;;;;5053516;28;20040;-76
2023/08/01 09:11:51;;;;;;;6.00;2.60;;;17.90;79.30;;;;;;5053534;28;20095;-77
2023/08/01 09:14:19;;;;;;;5.93;1.98;;;17.80;79.20;;;;;;5053004;28;20041;-76
2023/08/01 09:16:48;;;;;;;4.18;1.80;;;17.80;79.30;;;;;;5053197;28;20370;-76
2023/08/01 09:19:23;;;;;;;4.93;1.67;;;17.80;79.20;;;;;;5053203;28;20048;-78
2023/08/01 09:21:50;;;;;;;4.15;1.42;;;17.70;79.20;;;;;;5053837;28;20123;-79
2023/08/01 09:24:18;;;;;;;5.30;1.40;;;17.70;79.30;;;;;;5053329;28;20072;-81
2023/08/01 09:26:46;;;;;;;3.45;1.35;;;17.70;79.90;;;;;;5037018;28;20037;-80
2023/08/01 09:29:12;;;;;;;2.17;1.13;;;17.70;79.70;;;;;;5036918;28;20049;-80
2023/08/01 09:31:40;;;;;;;3.10;1.40;;;17.70;79.90;;;;;;5053359;28;20037;-81
2023/08/01 09:34:18;;;;;;;4.63;1.50;;;17.70;80.40;;;;;;5037106;28;20040;-80
2023/08/01 09:36:44;;;;;;;4.97;1.98;;;17.70;80.80;;;;;;5053465;28;20097;-81
2023/08/01 09:39:20;;;;;;;4.43;1.70;;;17.70;81.20;;;;;;5020428;28;20037;-80
2023/08/01 09:41:46;;;;;;;4.80;1.60;;;17.80;81.50;;;;;;5053382;28;20491;-81
2023/08/01 09:44:15;;;;;;;4.93;1.50;;;17.80;81.60;;;;;;5053185;28;20120;-81
2023/08/01 09:46:42;;;;;;;6.03;1.92;;;17.90;81.70;;;;;;5052883;28;20120;-82
2023/08/01 09:49:12;;;;;;;4.78;1.60;;;17.90;81.70;;;;;;5019510;28;20418;-81
2023/08/01 09:51:50;;;;;;;5.85;1.52;;;17.90;81.70;;;;;;5036785;28;20091;-81
2023/08/01 09:54:17;;;;;;;4.13;1.48;;;18.00;81.80;;;;;;5036944;28;20059;-79
2023/08/01 09:56:49;;;;;;;4.70;1.75;;;18.10;81.80;;;;;;5053047;28;20041;-79
2023/08/01 09:59:23;;;;;;;3.67;1.15;;;18.20;81.80;;;;;;5036559;28;20047;-79
2023/08/01 10:01:50;;;;;;;3.47;1.20;;;18.20;82.00;;;;;;5052769;28;20477;-79
2023/08/01 10:04:20;;;;;;;3.72;1.65;;;18.30;81.90;;;;;;5036517;28;20040;-79
2023/08/01 10:06:49;;;;;;;4.60;1.30;;;18.40;82.00;;;;;;5053258;28;20052;-79
2023/08/01 10:09:16;;;;;;;5.13;1.50;;;18.40;81.90;;;;;;5052577;28;20052;-79
2023/08/01 10:11:43;;;;;;;3.70;1.30;;;18.50;81.80;;;;;;5029031;28;20452;-80
2023/08/01 10:14:11;;;;;;;3.38;1.10;;;18.60;81.20;;;;;;5035158;28;20485;-79
2023/08/01 10:16:37;;;;;;;3.63;1.33;;;18.70;80.80;;;;;;5035983;28;20420;-78
2023/08/01 10:19:07;;;;;;;3.95;1.50;;;18.70;80.60;;;;;;5052519;28;20526;-78
2023/08/01 10:21:33;;;;;;;6.63;1.70;;;18.70;80.20;;;;;;5036009;28;20040;-78
2023/08/01 10:23:59;;;;;;;5.80;1.85;;;18.80;80.30;;;;;;5035245;28;20041;-78
2023/08/01 10:26:25;;;;;;;8.27;1.50;;;18.80;80.40;;;;;;5035095;28;20043;-77
2023/08/01 10:28:52;;;;;;;6.55;1.50;;;18.90;80.50;;;;;;5035710;28;20037;-76
2023/08/01 10:31:19;;;;;;;5.30;1.55;;;18.90;80.50;;;;;;5036142;28;20040;-77
2023/08/01 10:33:49;;;;;;;5.07;1.63;;;19.00;80.90;;;;;;5018919;28;20381;-76
2023/08/01 10:36:27;;;;;;;7.40;1.85;;;19.10;81.10;;;;;;5051233;28;20120;-76
2023/08/01 10:38:58;;;;;;;8.45;2.08;;;19.30;81.30;;;;;;5019461;28;20180;-76
2023/08/01 10:41:34;;;;;;;7.47;1.60;;;19.40;81.50;;;;;;5035494;28;20051;-77
2023/08/01 10:44:14;;;;;;;6.38;1.40;;;19.60;80.60;;;;;;5051413;28;20128;-77
2023/08/01 10:46:53;;;;;;;7.00;2.42;;;19.70;79.50;;;;;;5035426;28;20048;-77
2023/08/01 10:49:21;;;;;;;5.93;1.63;;;19.80;78.50;;;;;;5051164;28;20052;-76
2023/08/01 10:51:47;;;;;;;5.65;1.70;;;19.80;78.00;;;;;;5034800;28;20072;-76
2023/08/01 10:54:20;;;;;;;7.30;1.67;;;19.90;78.00;;;;;;5051175;28;20041;-78
2023/08/01 10:56:47;;;;;;;11.18;2.65;;;20.00;77.60;;;;;;5051217;28;20453;-78
2023/08/01 10:59:14;;;;;;;6.75;1.95;;;20.00;77.30;;;;;;5051087;28;20315;-78
2023/08/01 11:01:51;;;;;;;6.88;1.90;;;20.00;76.90;;;;;;5032637;28;20128;-77
2023/08/01 11:04:17;;;;;;;3.80;1.27;;;20.00;76.20;;;;;;5050607;28;20068;-77
2023/08/01 11:06:50;;;;;;;6.72;1.58;;;20.00;76.00;;;;;;5051071;28;20063;-77
2023/08/01 11:09:18;;;;;;;5.43;1.40;;;20.00;75.80;;;;;;5050600;28;20036;-77
2023/08/01 11:11:45;;;;;;;5.18;1.17;;;20.00;75.80;;;;;;5051171;28;20326;-78
2023/08/01 11:14:12;;;;;;;5.85;1.63;;;20.00;75.60;;;;;;5033981;28;20185;-77
2023/08/01 11:16:38;;;;;;;6.28;1.70;;;19.90;74.90;;;;;;5050823;28;20087;-76
2023/08/01 11:19:04;;;;;;;5.28;1.33;;;19.80;74.60;;;;;;5050863;28;20049;-77
2023/08/01 11:21:29;;;;;;;5.22;1.38;;;19.80;75.20;;;;;;5050765;28;20174;-77
2023/08/01 11:23:56;;;;;;;4.63;1.40;;;19.80;76.30;;;;;;5051062;28;20456;-77
2023/08/01 11:26:22;;;;;;;7.00;1.38;;;19.80;76.60;;;;;;5050970;28;20040;-76
2023/08/01 11:28:48;;;;;;;6.07;1.63;;;19.80;76.20;;;;;;5050986;28;20484;-78
2023/08/01 11:31:14;;;;;;;3.58;1.10;;;19.80;75.30;;;;;;5034143;28;20041;-77
2023/08/01 11:33:40;;;;;;;4.20;1.25;;;19.70;75.10;;;;;;5050995;28;20041;-77
2023/08/01 11:36:06;;;;;;;3.97;1.52;;;19.70;75.20;;;;;;5050186;28;20060;-78
2023/08/01 11:38:34;;;;;;;6.03;1.70;;;19.70;75.40;;;;;;5033978;28;20056;-76
2023/08/01 11:41:04;;;;;;;6.13;2.00;;;19.60;76.10;;;;;;5034201;28;20048;-77
2023/08/01 11:43:41;;;;;;;8.40;2.05;;;19.60;77.10;;;;;;5034234;28;20075;-77
2023/08/01 11:46:07;;;;;;;7.18;2.35;;;19.70;77.40;;;;;;5034218;28;20041;-77
2023/08/01 11:48:32;;;;;;;6.03;1.77;;;19.70;77.60;;;;;;5050564;28;20051;-77
2023/08/01 11:50:59;;;;;;;7.10;2.20;;;19.80;77.90;;;;;;5050345;28;20045;-76
2023/08/01 11:53:26;;;;;;;4.68;1.38;;;19.80;77.90;;;;;;5034175;28;20120;-76
2023/08/01 11:55:52;;;;;;;6.05;2.10;;;19.80;77.80;;;;;;5050415;28;20040;-76
2023/08/01 11:58:32;;;;;;;7.25;2.10;;;19.90;77.10;;;;;;5050316;28;20045;-76
2023/08/01 12:01:10;;;;;;;6.95;1.90;;;19.90;76.60;;;;;;5017849;28;20091;-76
2023/08/01 12:03:49;;;;;;;8.75;2.05;;;20.00;77.20;;;;;;5049494;28;20051;-76
2023/08/01 12:06:16;;;;;;;7.65;2.38;;;20.00;77.70;;;;;;5050301;28;20083;-77
2023/08/01 12:08:43;;;;;;;7.40;2.28;;;20.20;77.90;;;;;;5050046;28;20053;-76
2023/08/01 12:11:19;;;;;;;8.18;2.20;;;20.20;77.50;;;;;;5050129;28;20072;-77
2023/08/01 12:13:45;;;;;;;6.20;1.80;;;20.30;76.30;;;;;;5054258;28;20048;-76
2023/08/01 12:16:10;;;;;;;5.05;1.50;;;20.20;75.90;;;;;;5038131;28;20044;-76
2023/08/01 12:18:39;;;;;;;7.15;1.60;;;20.30;75.60;;;;;;5054901;28;20037;-75
2023/08/01 12:21:05;;;;;;;7.97;2.38;;;20.30;75.10;;;;;;5054624;28;20550;-77
2023/08/01 12:23:31;;;;;;;4.70;1.65;;;20.30;74.80;;;;;;5037958;28;20075;-76
2023/08/01 12:25:57;;;;;;;3.80;1.10;;;20.20;74.60;;;;;;5038128;28;20040;-76
2023/08/01 12:28:23;;;;;;;4.50;1.40;;;20.20;75.00;;;;;;5054509;28;20086;-77
2023/08/01 12:30:49;;;;;;;6.38;1.88;;;20.20;75.40;;;;;;5038046;28;20047;-76
2023/08/01 12:33:14;;;;;;;4.28;1.60;;;20.20;75.50;;;;;;5054670;28;20044;-77
2023/08/01 12:35:41;;;;;;;3.80;1.70;;;20.20;76.00;;;;;;5054121;28;20408;-74
2023/08/01 12:38:08;;;;;;;3.83;1.30;;;20.20;75.90;;;;;;5021088;28;20045;-75
2023/08/01 12:40:33;;;;;;;5.00;1.50;;;20.30;75.70;;;;;;5037581;28;20040;-74
2023/08/01 12:42:59;;;;;;;6.60;1.77;;;20.30;75.30;;;;;;5054150;28;20045;-74